createdAt,value
2019-03-12T00:00:46.370Z,101307.30
2019-03-12T00:03:21.986Z,101308.21
2019-03-12T00:05:55.861Z,101306.70
2019-03-12T00:08:29.767Z,101313.97
2019-03-12T00:11:05.459Z,101307.13
2019-03-12T00:13:41.176Z,101310.97
2019-03-12T00:16:15.059Z,101313.91
2019-03-12T00:18:48.909Z,101312.23
2019-03-12T00:21:22.987Z,101309.68
2019-03-12T00:23:58.569Z,101314.73
2019-03-12T00:26:32.442Z,101316.80
2019-03-12T00:29:07.750Z,101311.65
2019-03-12T00:31:41.762Z,101324.47
2019-03-12T00:34:15.879Z,101325.73
2019-03-12T00:36:49.936Z,101322.70
2019-03-12T00:39:23.753Z,101324.88
2019-03-12T00:41:58.833Z,101326.56
2019-03-12T00:44:34.471Z,101327.33
2019-03-12T00:47:08.100Z,101329.00
2019-03-12T00:49:41.829Z,101330.67
2019-03-12T00:52:15.489Z,101322.95
2019-03-12T00:54:50.942Z,101322.47
2019-03-12T00:57:24.664Z,101328.02
2019-03-12T00:59:58.436Z,101323.27
2019-03-12T01:02:32.369Z,101330.81
2019-03-12T01:05:06.416Z,101334.22
2019-03-12T01:07:41.307Z,101330.52
2019-03-12T01:10:15.994Z,101326.97
2019-03-12T01:12:49.865Z,101326.99
2019-03-12T01:15:23.693Z,101327.73
2019-03-12T01:17:58.791Z,101325.66
2019-03-12T01:20:32.813Z,101325.20
2019-03-12T01:23:06.547Z,101323.05
2019-03-12T01:25:40.923Z,101317.61
2019-03-12T01:28:15.249Z,101325.48
2019-03-12T01:30:52.327Z,101324.26
2019-03-12T01:33:30.020Z,101319.52
2019-03-12T01:36:04.405Z,101322.99
2019-03-12T01:38:38.155Z,101331.55
2019-03-12T01:41:11.845Z,101324.70
2019-03-12T01:43:46.115Z,101327.70
2019-03-12T01:46:21.204Z,101329.25
2019-03-12T01:48:56.756Z,101330.63
2019-03-12T01:51:31.274Z,101336.21
2019-03-12T01:54:07.224Z,101332.84
2019-03-12T01:56:42.024Z,101333.20
2019-03-12T01:59:15.944Z,101328.47
2019-03-12T02:01:51.238Z,101329.16
2019-03-12T02:04:25.025Z,101325.85
2019-03-12T02:06:58.851Z,101336.64
2019-03-12T02:09:32.892Z,101330.58
2019-03-12T02:12:07.072Z,101321.20
2019-03-12T02:14:41.899Z,101324.09
2019-03-12T02:17:15.916Z,101324.18
2019-03-12T02:19:50.678Z,101324.57
2019-03-12T02:22:24.440Z,101320.96
2019-03-12T02:24:59.292Z,101322.80
2019-03-12T02:27:33.093Z,101320.19
2019-03-12T02:30:09.481Z,101319.72
2019-03-12T02:32:45.068Z,101315.17
2019-03-12T02:35:20.170Z,101306.58
2019-03-12T02:37:56.811Z,101305.64
2019-03-12T02:40:31.659Z,101305.28
2019-03-12T02:43:05.455Z,101293.16
2019-03-12T02:45:39.379Z,101292.36
2019-03-12T02:48:13.302Z,101286.52
2019-03-12T02:50:47.405Z,101288.28
2019-03-12T02:53:21.177Z,101290.42
2019-03-12T02:55:54.939Z,101287.21
2019-03-12T02:58:28.712Z,101290.59
2019-03-12T03:01:02.635Z,101288.52
2019-03-12T03:03:37.130Z,101289.38
2019-03-12T03:06:35.712Z,101287.70
2019-03-12T03:09:09.852Z,101287.58
2019-03-12T03:11:44.478Z,101288.00
2019-03-12T03:14:41.204Z,101288.86
2019-03-12T03:17:18.170Z,101289.95
2019-03-12T03:19:52.367Z,101298.07
2019-03-12T03:22:26.026Z,101301.98
2019-03-12T03:24:59.767Z,101308.03
2019-03-12T03:27:33.442Z,101300.69
2019-03-12T03:30:11.000Z,101304.09
2019-03-12T03:32:47.356Z,101304.13
2019-03-12T03:35:23.356Z,101306.64
2019-03-12T03:37:57.165Z,101300.53
2019-03-12T03:40:32.266Z,101307.09
2019-03-12T03:43:06.050Z,101304.09
2019-03-12T03:45:39.877Z,101300.76
2019-03-12T03:48:13.582Z,101296.41
2019-03-12T03:50:47.286Z,101296.86
2019-03-12T03:53:20.977Z,101291.70
2019-03-12T03:55:55.163Z,101293.06
2019-03-12T03:58:30.179Z,101295.16
2019-03-12T04:01:04.186Z,101291.70
2019-03-12T04:03:37.966Z,101295.24
2019-03-12T04:06:11.972Z,101296.48
2019-03-12T04:08:46.931Z,101299.91
2019-03-12T04:11:22.612Z,101299.59
2019-03-12T04:13:57.492Z,101300.80
2019-03-12T04:16:31.389Z,101294.84
2019-03-12T04:19:06.553Z,101299.52
2019-03-12T04:21:40.343Z,101298.63
2019-03-12T04:24:14.012Z,101294.36
2019-03-12T04:26:51.889Z,101289.27
2019-03-12T04:29:25.647Z,101292.34
2019-03-12T04:31:59.341Z,101295.85
2019-03-12T04:34:40.630Z,101294.53
2019-03-12T04:37:14.540Z,101285.59
2019-03-12T04:39:50.233Z,101286.03
2019-03-12T04:42:26.571Z,101283.49
2019-03-12T04:45:00.430Z,101277.09
2019-03-12T04:47:34.308Z,101274.08
2019-03-12T04:50:09.877Z,101278.44
2019-03-12T04:52:43.848Z,101277.16
2019-03-12T04:55:18.676Z,101285.61
2019-03-12T04:57:53.513Z,101273.94
2019-03-12T05:00:27.443Z,101280.11
2019-03-12T05:03:01.411Z,101274.11
2019-03-12T05:05:35.341Z,101270.27
2019-03-12T05:08:09.141Z,101268.27
2019-03-12T05:10:42.962Z,101270.50
2019-03-12T05:13:17.759Z,101263.76
2019-03-12T05:15:51.494Z,101274.59
2019-03-12T05:18:25.507Z,101279.88
2019-03-12T05:20:59.606Z,101275.15
2019-03-12T05:23:34.475Z,101269.26
2019-03-12T05:26:08.369Z,101278.25
2019-03-12T05:28:43.718Z,101279.98
2019-03-12T05:31:17.608Z,101278.64
2019-03-12T05:33:51.282Z,101275.78
2019-03-12T05:36:25.769Z,101268.52
2019-03-12T05:38:59.498Z,101268.53
2019-03-12T05:41:33.225Z,101267.74
2019-03-12T05:44:07.719Z,101260.46
2019-03-12T05:46:41.804Z,101260.91
2019-03-12T05:49:17.451Z,101259.14
2019-03-12T05:51:52.990Z,101264.63
2019-03-12T05:54:26.699Z,101263.33
2019-03-12T05:57:00.312Z,101251.38
2019-03-12T05:59:33.877Z,101247.08
2019-03-12T06:02:07.583Z,101235.02
2019-03-12T06:04:41.158Z,101232.88
2019-03-12T06:07:15.311Z,101231.34
2019-03-12T06:09:48.979Z,101234.22
2019-03-12T06:12:23.824Z,101236.91
2019-03-12T06:14:57.712Z,101222.54
2019-03-12T06:17:31.572Z,101222.97
2019-03-12T06:20:05.955Z,101226.71
2019-03-12T06:22:41.772Z,101218.66
2019-03-12T06:25:16.084Z,101216.94
2019-03-12T06:27:49.871Z,101215.75
2019-03-12T06:30:25.826Z,101214.82
2019-03-12T06:33:05.902Z,101210.86
2019-03-12T06:35:59.095Z,101206.20
2019-03-12T06:38:45.127Z,101207.39
2019-03-12T06:41:27.232Z,101204.92
2019-03-12T06:44:13.518Z,101199.97
2019-03-12T06:47:02.984Z,101207.45
2019-03-12T06:49:54.082Z,101212.02
2019-03-12T06:52:55.934Z,101219.83
2019-03-12T06:55:54.811Z,101221.91
2019-03-12T06:58:52.258Z,101227.94
2019-03-12T07:01:48.894Z,101226.25
2019-03-12T07:04:39.279Z,101215.05
2019-03-12T07:07:41.599Z,101219.30
2019-03-12T07:10:23.118Z,101216.20
2019-03-12T07:13:21.652Z,101211.20
2019-03-12T07:16:19.952Z,101206.73
2019-03-12T07:19:02.153Z,101211.55
2019-03-12T07:22:01.341Z,101199.45
2019-03-12T07:24:46.923Z,101193.89
2019-03-12T07:27:34.947Z,101190.84
2019-03-12T07:30:31.676Z,101194.81
2019-03-12T07:33:13.382Z,101189.54
2019-03-12T07:36:04.094Z,101189.20
2019-03-12T07:38:53.830Z,101178.41
2019-03-12T07:41:46.469Z,101172.41
2019-03-12T07:44:39.109Z,101167.39
2019-03-12T07:47:42.185Z,101167.31
2019-03-12T07:50:42.390Z,101167.12
2019-03-12T07:53:58.852Z,101163.47
2019-03-12T07:56:31.860Z,101164.09
2019-03-12T07:59:37.597Z,101160.52
2019-03-12T08:02:19.798Z,101145.22
2019-03-12T08:05:02.916Z,101144.52
2019-03-12T08:07:53.926Z,101136.81
2019-03-12T08:10:47.169Z,101130.25
2019-03-12T08:13:41.645Z,101120.66
2019-03-12T08:16:37.048Z,101114.20
2019-03-12T08:19:29.276Z,101107.52
2019-03-12T08:22:28.400Z,101109.86
2019-03-12T08:25:10.274Z,101097.75
2019-03-12T08:28:08.928Z,101093.80
2019-03-12T08:30:55.730Z,101092.65
2019-03-12T08:33:50.857Z,101089.23
2019-03-12T08:36:50.625Z,101086.06
2019-03-12T08:39:46.029Z,101079.72
2019-03-12T08:42:54.939Z,101071.37
2019-03-12T08:45:48.896Z,101058.89
2019-03-12T08:48:32.940Z,101058.71
2019-03-12T08:51:19.546Z,101051.97
2019-03-12T08:54:29.168Z,101036.39
2019-03-12T08:57:17.156Z,101033.55
2019-03-12T09:00:10.332Z,101017.75
2019-03-12T09:02:54.593Z,101009.11
2019-03-12T09:06:01.044Z,101011.75
2019-03-12T09:09:00.044Z,100999.00
2019-03-12T09:12:02.392Z,100998.59
2019-03-12T09:14:59.705Z,100995.94
2019-03-12T09:17:46.026Z,100995.17
2019-03-12T09:20:28.839Z,100988.45
2019-03-12T09:23:17.995Z,100985.16
2019-03-12T09:26:00.171Z,100979.23
2019-03-12T09:28:45.564Z,100969.06
2019-03-12T09:31:36.668Z,100971.20
2019-03-12T09:34:34.933Z,100956.20
2019-03-12T09:37:42.618Z,100947.19
2019-03-12T09:40:34.467Z,100943.30
2019-03-12T09:43:26.356Z,100936.05
2019-03-12T09:46:33.932Z,100924.91
2019-03-12T09:49:19.407Z,100921.59
2019-03-12T09:52:01.506Z,100912.63
2019-03-12T09:54:55.683Z,100918.32
2019-03-12T09:57:54.684Z,100916.06
2019-03-12T10:00:45.964Z,100907.43
2019-03-12T10:03:35.435Z,100899.33
2019-03-12T10:06:30.828Z,100901.34
2019-03-12T10:09:30.636Z,100882.06
2019-03-12T10:12:26.642Z,100881.45
2019-03-12T10:15:32.071Z,100867.05
2019-03-12T10:18:25.835Z,100871.59
2019-03-12T10:21:19.806Z,100864.69
2019-03-12T10:24:00.062Z,100858.88
2019-03-12T10:26:52.004Z,100844.90
2019-03-12T10:29:37.047Z,100847.06
2019-03-12T10:32:24.770Z,100849.63
2019-03-12T10:35:29.493Z,100842.29
2019-03-12T10:39:07.889Z,100834.22
2019-03-12T10:42:06.948Z,100830.37
2019-03-12T10:44:53.144Z,100818.83
2019-03-12T10:47:29.642Z,100812.48
2019-03-12T10:50:04.747Z,100806.70
2019-03-12T10:52:38.554Z,100807.67
2019-03-12T10:55:18.436Z,100800.13
2019-03-12T10:57:52.921Z,100787.33
2019-03-12T11:00:27.657Z,100794.59
2019-03-12T11:03:01.692Z,100787.66
2019-03-12T11:05:45.256Z,100777.64
2019-03-12T11:08:11.132Z,100769.58
2019-03-12T11:10:45.044Z,100763.88
2019-03-12T11:13:20.067Z,100762.80
2019-03-12T11:15:56.023Z,100754.65
2019-03-12T11:18:30.859Z,100757.17
2019-03-12T11:21:04.489Z,100747.72
2019-03-12T11:23:40.058Z,100734.50
2019-03-12T11:26:13.857Z,100729.53
2019-03-12T11:28:47.557Z,100723.00
2019-03-12T11:31:21.286Z,100727.27
2019-03-12T11:33:56.977Z,100718.27
2019-03-12T11:36:31.476Z,100715.94
2019-03-12T11:39:06.043Z,100712.70
2019-03-12T11:41:42.038Z,100697.64
2019-03-12T11:44:16.398Z,100702.08
2019-03-12T11:46:50.195Z,100685.08
2019-03-12T11:49:24.212Z,100692.02
2019-03-12T11:51:59.334Z,100694.56
2019-03-12T11:54:35.048Z,100695.53
2019-03-12T11:57:08.936Z,100685.28
2019-03-12T11:59:43.719Z,100677.23
2019-03-12T12:02:17.397Z,100678.92
2019-03-12T12:04:51.495Z,100664.61
2019-03-12T12:07:25.463Z,100666.98
2019-03-12T12:10:02.072Z,100654.28
2019-03-12T12:12:36.397Z,100645.45
2019-03-12T12:15:11.514Z,100629.25
2019-03-12T12:17:49.501Z,100631.16
2019-03-12T12:20:29.706Z,100624.84
2019-03-12T12:22:59.802Z,100607.03
2019-03-12T12:25:33.604Z,100593.25
2019-03-12T12:28:07.460Z,100584.58
2019-03-12T12:30:41.201Z,100583.77
2019-03-12T12:33:16.153Z,100571.31
2019-03-12T12:35:53.492Z,100561.45
2019-03-12T12:38:27.181Z,100557.05
2019-03-12T12:41:01.048Z,100542.91
2019-03-12T12:43:34.751Z,100536.70
2019-03-12T12:46:09.871Z,100529.16
2019-03-12T12:48:43.880Z,100526.27
2019-03-12T12:51:17.832Z,100518.47
2019-03-12T12:53:51.808Z,100516.78
2019-03-12T12:56:27.587Z,100507.63
2019-03-12T12:59:01.531Z,100501.64
2019-03-12T13:01:35.299Z,100495.27
2019-03-12T13:04:10.135Z,100484.08
2019-03-12T13:06:43.867Z,100478.91
2019-03-12T13:09:18.674Z,100473.41
2019-03-12T13:11:52.480Z,100462.24
2019-03-12T13:14:26.516Z,100457.00
2019-03-12T13:17:01.233Z,100452.16
2019-03-12T13:19:34.885Z,100446.02
2019-03-12T13:22:09.623Z,100433.47
2019-03-12T13:24:44.506Z,100431.27
2019-03-12T13:27:20.594Z,100420.95
2019-03-12T13:29:54.583Z,100410.11
2019-03-12T13:32:28.828Z,100402.13
2019-03-12T13:35:02.624Z,100395.05
2019-03-12T13:37:39.356Z,100400.30
2019-03-12T13:40:17.245Z,100392.22
2019-03-12T13:42:51.357Z,100388.89
2019-03-12T13:45:26.849Z,100379.13
2019-03-12T13:48:00.805Z,100370.34
2019-03-12T13:50:34.843Z,100358.73
2019-03-12T13:53:08.868Z,100351.64
2019-03-12T13:55:43.688Z,100335.56
2019-03-12T13:58:19.575Z,100344.27
2019-03-12T14:00:53.517Z,100329.17
2019-03-12T14:03:28.438Z,100327.65
2019-03-12T14:06:02.093Z,100322.82
2019-03-12T14:08:35.796Z,100324.10
2019-03-12T14:11:09.834Z,100315.13
2019-03-12T14:13:45.463Z,100305.13
2019-03-12T14:16:19.309Z,100296.39
2019-03-12T14:18:53.058Z,100290.71
2019-03-12T14:21:26.807Z,100283.53
2019-03-12T14:24:03.571Z,100273.47
2019-03-12T14:26:39.229Z,100268.17
2019-03-12T14:29:14.730Z,100251.37
2019-03-12T14:31:48.707Z,100251.45
2019-03-12T14:34:27.059Z,100241.34
2019-03-12T14:37:00.998Z,100230.45
2019-03-12T14:39:35.097Z,100219.40
2019-03-12T14:42:09.937Z,100213.95
2019-03-12T14:44:43.720Z,100196.89
2019-03-12T14:47:17.681Z,100183.73
2019-03-12T14:49:51.303Z,100169.36
2019-03-12T14:52:30.688Z,100163.44
2019-03-12T14:55:05.991Z,100144.02
2019-03-12T14:57:40.967Z,100131.20
2019-03-12T15:00:24.791Z,100120.14
2019-03-12T15:02:59.838Z,100117.88
2019-03-12T15:05:33.848Z,100107.77
2019-03-12T15:08:12.305Z,100119.41
2019-03-12T15:10:46.277Z,100102.36
2019-03-12T15:13:23.037Z,100096.58
2019-03-12T15:15:56.759Z,100097.63
2019-03-12T15:18:30.505Z,100065.54
2019-03-12T15:21:06.088Z,100053.07
2019-03-12T15:23:40.258Z,100041.52
2019-03-12T15:26:15.981Z,100031.03
2019-03-12T15:28:49.760Z,100025.25
2019-03-12T15:31:23.502Z,100012.94
2019-03-12T15:33:57.573Z,100011.17
2019-03-12T15:36:31.249Z,100005.70
2019-03-12T15:39:06.835Z,99980.62
2019-03-12T15:41:41.803Z,99992.11
2019-03-12T15:44:15.533Z,99979.70
2019-03-12T15:46:49.456Z,99979.56
2019-03-12T15:49:23.319Z,99959.58
2019-03-12T15:51:57.530Z,99969.44
2019-03-12T15:54:31.346Z,99956.70
2019-03-12T15:57:05.438Z,99943.84
2019-03-12T15:59:39.322Z,99941.55
2019-03-12T16:02:13.240Z,99934.80
2019-03-12T16:04:50.615Z,99929.48
2019-03-12T16:07:27.264Z,99923.98
2019-03-12T16:10:03.714Z,99906.83
2019-03-12T16:12:38.770Z,99907.38
2019-03-12T16:15:12.963Z,99904.47
2019-03-12T16:17:50.678Z,99898.48
2019-03-12T16:20:24.706Z,99886.98
2019-03-12T16:22:58.994Z,99871.95
2019-03-12T16:25:35.032Z,99875.00
2019-03-12T16:28:09.155Z,99863.68
2019-03-12T16:30:43.420Z,99856.39
2019-03-12T16:33:18.585Z,99846.02
2019-03-12T16:35:52.367Z,99842.91
2019-03-12T16:38:26.832Z,99835.16
2019-03-12T16:41:02.198Z,99827.24
2019-03-12T16:43:36.054Z,99811.74
2019-03-12T16:46:09.759Z,99814.62
2019-03-12T16:48:43.564Z,99804.08
2019-03-12T16:51:17.367Z,99805.59
2019-03-12T16:53:51.274Z,99799.69
2019-03-12T16:56:26.713Z,99789.74
2019-03-12T16:59:00.704Z,99782.63
2019-03-12T17:01:35.935Z,99777.52
2019-03-12T17:04:09.843Z,99763.17
2019-03-12T17:06:46.008Z,99766.11
2019-03-12T17:09:22.637Z,99749.97
2019-03-12T17:11:56.338Z,99746.56
2019-03-12T17:14:38.850Z,99733.27
2019-03-12T17:17:10.967Z,99728.02
2019-03-12T17:19:45.553Z,99717.42
2019-03-12T17:22:20.631Z,99704.44
2019-03-12T17:24:54.276Z,99702.93
2019-03-12T17:27:29.782Z,99702.41
2019-03-12T17:30:06.038Z,99695.41
2019-03-12T17:32:39.829Z,99689.12
2019-03-12T17:35:16.678Z,99679.56
2019-03-12T17:37:50.682Z,99670.45
2019-03-12T17:40:24.486Z,99660.42
2019-03-12T17:42:58.358Z,99649.20
2019-03-12T17:45:32.189Z,99644.08
2019-03-12T17:48:07.034Z,99641.27
2019-03-12T17:50:41.237Z,99643.17
2019-03-12T17:53:16.678Z,99633.96
2019-03-12T17:55:52.302Z,99628.63
2019-03-12T17:58:27.339Z,99622.47
2019-03-12T18:01:01.210Z,99609.05
2019-03-12T18:03:38.538Z,99612.52
2019-03-12T18:06:12.430Z,99595.59
2019-03-12T18:08:47.547Z,99588.70
2019-03-12T18:11:21.745Z,99577.25
2019-03-12T18:13:57.350Z,99561.94
2019-03-12T18:16:41.125Z,99559.48
2019-03-12T18:19:09.256Z,99553.81
2019-03-12T18:21:45.015Z,99551.35
2019-03-12T18:24:19.099Z,99542.58
2019-03-12T18:26:53.041Z,99534.13
2019-03-12T18:29:29.513Z,99539.77
2019-03-12T18:32:04.909Z,99529.37
2019-03-12T18:34:39.657Z,99515.50
2019-03-12T18:37:13.477Z,99508.88
2019-03-12T18:39:48.602Z,99516.27
2019-03-12T18:42:23.037Z,99513.59
2019-03-12T18:44:58.423Z,99495.61
2019-03-12T18:47:32.632Z,99490.66
2019-03-12T18:50:07.705Z,99474.13
2019-03-12T18:52:42.787Z,99473.20
2019-03-12T18:55:49.037Z,99455.99
2019-03-12T18:58:25.146Z,99458.39
2019-03-12T19:01:02.015Z,99458.48
2019-03-12T19:03:38.286Z,99450.17
2019-03-12T19:06:14.597Z,99441.70
2019-03-12T19:08:49.052Z,99437.06
2019-03-12T19:11:23.070Z,99428.94
2019-03-12T19:13:57.061Z,99426.30
2019-03-12T19:16:30.837Z,99422.58
2019-03-12T19:19:07.347Z,99410.42
2019-03-12T19:21:50.173Z,99402.93
2019-03-12T19:24:29.111Z,99395.75
2019-03-12T19:27:05.008Z,99396.95
2019-03-12T19:29:40.444Z,99377.05
2019-03-12T19:32:27.330Z,99355.83
2019-03-12T19:35:01.353Z,99346.07
2019-03-12T19:37:35.475Z,99333.88
2019-03-12T19:40:14.959Z,99334.98
2019-03-12T19:42:49.869Z,99324.03
2019-03-12T19:45:23.678Z,99328.28
2019-03-12T19:47:57.996Z,99315.09
2019-03-12T19:50:32.829Z,99311.66
2019-03-12T19:53:07.492Z,99294.81
2019-03-12T19:55:45.784Z,99298.56
2019-03-12T19:58:21.110Z,99298.30
2019-03-12T20:01:01.419Z,99282.34
2019-03-12T20:03:36.935Z,99276.89
2019-03-12T20:06:11.006Z,99268.42
2019-03-12T20:08:45.952Z,99242.70
2019-03-12T20:12:31.204Z,99251.36
2019-03-12T20:16:16.749Z,99241.69
2019-03-12T20:19:54.002Z,99230.80
2019-03-12T20:23:21.946Z,99221.58
2019-03-12T20:26:49.787Z,99217.70
2019-03-12T20:30:22.033Z,99219.47
2019-03-12T20:33:49.691Z,99221.11
2019-03-12T20:37:40.778Z,99208.58
2019-03-12T20:41:13.942Z,99215.22
2019-03-12T20:44:57.908Z,99201.56
2019-03-12T20:48:43.663Z,99197.39
2019-03-12T20:52:22.331Z,99199.91
2019-03-12T20:56:08.190Z,99193.89
2019-03-12T20:59:36.337Z,99179.79
2019-03-12T21:03:36.614Z,99172.52
2019-03-12T21:07:02.566Z,99179.23
2019-03-12T21:10:56.650Z,99165.69
2019-03-12T21:14:21.226Z,99156.00
2019-03-12T21:17:44.141Z,99145.22
2019-03-12T21:21:12.397Z,99140.98
2019-03-12T21:24:31.468Z,99133.70
2019-03-12T21:27:52.290Z,99123.63
2019-03-12T21:30:30.373Z,99116.52
2019-03-12T21:33:14.747Z,99104.59
2019-03-12T21:35:41.174Z,99090.91
2019-03-12T21:38:20.028Z,99089.23
2019-03-12T21:40:55.573Z,99090.75
2019-03-12T21:43:29.992Z,99083.53
2019-03-12T21:46:05.235Z,99077.14
2019-03-12T21:48:39.247Z,99066.03
2019-03-12T21:51:13.349Z,99065.27
2019-03-12T21:53:48.573Z,99059.36
2019-03-12T21:56:22.394Z,99043.30
2019-03-12T21:58:56.581Z,99028.65
2019-03-12T22:01:31.468Z,99037.65
2019-03-12T22:04:05.201Z,99031.50
2019-03-12T22:06:38.998Z,99031.23
2019-03-12T22:09:13.029Z,99028.70
2019-03-12T22:11:47.039Z,99019.60
2019-03-12T22:14:20.806Z,99021.63
2019-03-12T22:16:58.367Z,99010.00
2019-03-12T22:19:33.815Z,99002.38
2019-03-12T22:22:22.432Z,98986.98
2019-03-12T22:24:56.191Z,98986.17
2019-03-12T22:27:30.943Z,98986.53
2019-03-12T22:30:05.536Z,98985.35
2019-03-12T22:32:41.715Z,98993.00
2019-03-12T22:35:15.788Z,98996.88
2019-03-12T22:37:52.296Z,98998.43
2019-03-12T22:40:26.000Z,99008.51
2019-03-12T22:42:59.826Z,99008.69
2019-03-12T22:45:34.872Z,99000.06
2019-03-12T22:48:10.765Z,99007.48
2019-03-12T22:50:46.250Z,99010.19
2019-03-12T22:53:23.062Z,99014.73
2019-03-12T22:55:57.015Z,99004.87
2019-03-12T22:58:32.036Z,99024.38
2019-03-12T23:01:06.173Z,99007.87
2019-03-12T23:03:41.430Z,99003.17
2019-03-12T23:06:15.134Z,98989.46
2019-03-12T23:08:49.915Z,98998.08
2019-03-12T23:11:25.714Z,98991.62
2019-03-12T23:14:00.411Z,98967.61
2019-03-12T23:16:35.892Z,98981.55
2019-03-12T23:19:10.049Z,98957.66
2019-03-12T23:21:45.955Z,98967.49
2019-03-12T23:24:19.680Z,98962.33
2019-03-12T23:26:55.205Z,98967.56
2019-03-12T23:29:31.172Z,98967.23
2019-03-12T23:32:05.962Z,98966.28
2019-03-12T23:34:40.264Z,98966.11
2019-03-12T23:37:13.926Z,98971.20
2019-03-12T23:39:47.608Z,98970.08
2019-03-12T23:42:21.583Z,98972.84
2019-03-12T23:44:55.470Z,98969.12
2019-03-12T23:47:31.952Z,98977.45
2019-03-12T23:50:09.025Z,98985.91
2019-03-12T23:52:42.712Z,98987.47
2019-03-12T23:55:18.067Z,98987.73
2019-03-12T23:57:51.694Z,98993.98
